createdAt,value
2023-01-19T00:00:31.110Z,7.00
2023-01-19T00:02:58.044Z,7.00
2023-01-19T00:05:24.932Z,7.00
2023-01-19T00:07:51.663Z,7.00
2023-01-19T00:10:18.627Z,7.00
2023-01-19T00:12:45.353Z,7.00
2023-01-19T00:15:12.100Z,6.90
2023-01-19T00:17:41.008Z,6.90
2023-01-19T00:20:09.387Z,6.90
2023-01-19T00:22:39.491Z,7.00
2023-01-19T00:25:06.602Z,7.00
2023-01-19T00:27:35.059Z,7.00
2023-01-19T00:30:02.338Z,7.00
2023-01-19T00:32:29.165Z,7.00
2023-01-19T00:34:56.086Z,7.00
2023-01-19T00:37:23.277Z,7.00
2023-01-19T00:39:50.151Z,7.00
2023-01-19T00:42:35.454Z,7.00
2023-01-19T00:45:02.202Z,7.00
2023-01-19T00:47:29.012Z,7.00
2023-01-19T00:49:55.913Z,7.00
2023-01-19T00:52:22.621Z,7.00
2023-01-19T00:54:49.440Z,7.00
2023-01-19T00:57:16.922Z,7.00
2023-01-19T00:59:43.664Z,7.00
2023-01-19T01:02:11.615Z,7.00
2023-01-19T01:04:38.974Z,7.00
2023-01-19T01:07:06.174Z,7.00
2023-01-19T01:09:32.975Z,7.00
2023-01-19T01:11:59.932Z,7.00
2023-01-19T01:14:26.758Z,7.00
2023-01-19T01:16:53.775Z,6.90
2023-01-19T01:19:21.423Z,7.00
2023-01-19T01:21:48.254Z,7.00
2023-01-19T01:24:15.088Z,7.00
2023-01-19T01:26:41.837Z,7.00
2023-01-19T01:29:08.810Z,7.00
2023-01-19T01:31:35.708Z,6.90
2023-01-19T01:34:02.649Z,6.90
2023-01-19T01:36:32.101Z,6.90
2023-01-19T01:38:59.400Z,6.90
2023-01-19T01:41:27.463Z,6.90
2023-01-19T01:44:01.762Z,6.90
2023-01-19T01:46:30.968Z,6.90
2023-01-19T01:49:07.783Z,7.00
2023-01-19T01:51:36.907Z,7.00
2023-01-19T01:54:24.018Z,7.10
2023-01-19T01:56:53.587Z,7.20
2023-01-19T01:59:39.208Z,7.30
2023-01-19T02:02:29.634Z,7.30
2023-01-19T02:05:04.163Z,7.30
2023-01-19T02:08:03.444Z,7.30
2023-01-19T02:10:49.942Z,7.30
2023-01-19T02:13:23.039Z,7.30
2023-01-19T02:15:56.468Z,7.30
2023-01-19T02:18:26.560Z,7.30
2023-01-19T02:21:18.800Z,7.40
2023-01-19T02:23:52.456Z,7.40
2023-01-19T02:26:29.544Z,7.50
2023-01-19T02:28:59.754Z,7.50
2023-01-19T02:31:28.511Z,7.60
2023-01-19T02:33:56.029Z,7.60
2023-01-19T02:36:30.753Z,7.50
2023-01-19T02:39:00.151Z,7.40
2023-01-19T02:41:30.977Z,7.40
2023-01-19T02:43:58.969Z,7.50
2023-01-19T02:46:26.185Z,7.40
2023-01-19T02:48:52.967Z,7.40
2023-01-19T02:51:25.017Z,7.40
2023-01-19T02:54:12.306Z,7.40
2023-01-19T02:56:57.631Z,7.40
2023-01-19T02:59:52.238Z,7.30
2023-01-19T03:02:36.988Z,7.30
2023-01-19T03:05:25.977Z,7.20
2023-01-19T03:08:14.449Z,7.00
2023-01-19T03:10:57.911Z,6.90
2023-01-19T03:13:39.553Z,6.80
2023-01-19T03:16:14.107Z,6.70
2023-01-19T03:18:45.672Z,6.60
2023-01-19T03:21:13.992Z,6.60
2023-01-19T03:23:44.055Z,6.50
2023-01-19T03:26:14.782Z,6.50
2023-01-19T03:28:44.068Z,6.50
2023-01-19T03:31:22.476Z,6.50
2023-01-19T03:33:53.467Z,6.50
2023-01-19T03:36:42.036Z,6.50
2023-01-19T03:39:10.771Z,6.60
2023-01-19T03:41:40.411Z,6.60
2023-01-19T03:44:08.771Z,6.60
2023-01-19T03:46:35.701Z,6.70
2023-01-19T03:49:02.480Z,6.70
2023-01-19T03:51:29.653Z,6.60
2023-01-19T03:53:56.446Z,6.60
2023-01-19T03:56:25.405Z,6.50
2023-01-19T03:58:52.647Z,6.50
2023-01-19T04:01:22.900Z,6.40
2023-01-19T04:03:50.623Z,6.40
2023-01-19T04:06:18.260Z,6.30
2023-01-19T04:08:45.191Z,6.30
2023-01-19T04:11:12.299Z,6.30
2023-01-19T04:13:39.292Z,6.30
2023-01-19T04:16:07.477Z,6.30
2023-01-19T04:18:35.843Z,6.30
2023-01-19T04:21:04.321Z,6.30
2023-01-19T04:23:31.240Z,6.30
2023-01-19T04:26:03.859Z,6.40
2023-01-19T04:28:31.797Z,6.40
2023-01-19T04:30:58.728Z,6.50
2023-01-19T04:33:26.547Z,6.50
2023-01-19T04:35:54.607Z,6.50
2023-01-19T04:38:22.895Z,6.50
2023-01-19T04:40:50.872Z,6.50
2023-01-19T04:43:17.622Z,6.60
2023-01-19T04:45:45.374Z,6.60
2023-01-19T04:48:12.926Z,6.60
2023-01-19T04:50:40.195Z,6.60
2023-01-19T04:53:06.946Z,6.60
2023-01-19T04:55:33.983Z,6.60
2023-01-19T04:58:00.942Z,6.60
2023-01-19T05:00:27.904Z,6.50
2023-01-19T05:02:54.837Z,6.50
2023-01-19T05:05:21.999Z,6.50
2023-01-19T05:07:48.791Z,6.40
2023-01-19T05:10:16.042Z,6.40
2023-01-19T05:12:42.809Z,6.40
2023-01-19T05:15:10.446Z,6.50
2023-01-19T05:17:37.870Z,6.50
2023-01-19T05:20:05.457Z,6.50
2023-01-19T05:22:32.803Z,6.60
2023-01-19T05:25:01.588Z,6.60
2023-01-19T05:27:28.403Z,6.70
2023-01-19T05:29:55.191Z,6.80
2023-01-19T05:32:21.973Z,6.80
2023-01-19T05:34:48.712Z,6.80
2023-01-19T05:37:15.449Z,6.90
2023-01-19T05:39:42.245Z,6.90
2023-01-19T05:42:08.973Z,6.90
2023-01-19T05:44:35.728Z,6.90
2023-01-19T05:47:02.501Z,7.00
2023-01-19T05:49:29.282Z,7.00
2023-01-19T05:51:56.012Z,7.00
2023-01-19T05:54:22.923Z,7.00
2023-01-19T05:56:49.707Z,7.00
2023-01-19T05:59:21.474Z,7.00
2023-01-19T06:01:48.248Z,7.00
2023-01-19T06:04:14.975Z,6.90
2023-01-19T06:06:41.758Z,6.90
2023-01-19T06:09:08.639Z,6.80
2023-01-19T06:11:35.532Z,6.80
2023-01-19T06:14:02.306Z,6.80
2023-01-19T06:16:29.055Z,6.80
2023-01-19T06:18:55.911Z,6.80
2023-01-19T06:21:22.598Z,6.90
2023-01-19T06:23:49.380Z,6.90
2023-01-19T06:26:16.173Z,6.90
2023-01-19T06:28:42.993Z,7.00
2023-01-19T06:31:09.871Z,7.00
2023-01-19T06:33:36.721Z,7.10
2023-01-19T06:36:03.728Z,7.10
2023-01-19T06:38:30.449Z,7.10
2023-01-19T06:40:58.829Z,7.20
2023-01-19T06:43:26.763Z,7.10
2023-01-19T06:45:53.791Z,7.10
2023-01-19T06:48:20.986Z,7.20
2023-01-19T06:50:48.860Z,7.20
2023-01-19T06:53:16.733Z,7.20
2023-01-19T06:55:44.094Z,7.20
2023-01-19T06:58:11.178Z,7.20
2023-01-19T07:00:38.403Z,7.30
2023-01-19T07:03:08.838Z,7.30
2023-01-19T07:05:38.647Z,7.20
2023-01-19T07:08:05.595Z,7.30
2023-01-19T07:11:26.446Z,7.30
2023-01-19T07:13:19.179Z,7.30
2023-01-19T07:15:46.130Z,7.30
2023-01-19T07:18:12.858Z,7.20
2023-01-19T07:20:39.676Z,7.10
2023-01-19T07:23:06.424Z,7.10
2023-01-19T07:25:33.203Z,7.10
2023-01-19T07:28:00.106Z,7.00
2023-01-19T07:30:27.452Z,7.00
2023-01-19T07:32:58.465Z,6.90
2023-01-19T07:35:26.049Z,6.90
2023-01-19T07:37:52.939Z,6.90
2023-01-19T07:40:19.921Z,6.90
2023-01-19T07:42:48.765Z,6.90
2023-01-19T07:45:22.958Z,6.90
2023-01-19T07:47:50.060Z,6.90
2023-01-19T07:50:18.118Z,6.90
2023-01-19T07:52:45.532Z,6.90
2023-01-19T07:55:12.389Z,6.90
2023-01-19T07:57:39.155Z,6.90
2023-01-19T08:00:06.576Z,7.00
2023-01-19T08:02:39.451Z,7.00
2023-01-19T08:05:06.654Z,7.00
2023-01-19T08:07:34.461Z,7.00
2023-01-19T08:10:01.220Z,7.10
2023-01-19T08:12:28.035Z,7.10
2023-01-19T08:14:54.815Z,7.10
2023-01-19T08:17:21.622Z,7.20
2023-01-19T08:19:48.487Z,7.20
2023-01-19T08:22:15.186Z,7.20
2023-01-19T08:24:42.020Z,7.30
2023-01-19T08:27:09.981Z,7.30
2023-01-19T08:29:37.349Z,7.30
2023-01-19T08:32:04.811Z,7.30
2023-01-19T08:34:31.950Z,7.30
2023-01-19T08:36:59.678Z,7.30
2023-01-19T08:39:27.315Z,7.30
2023-01-19T08:41:54.901Z,7.30
2023-01-19T08:44:22.040Z,7.30
2023-01-19T08:46:48.806Z,7.30
2023-01-19T08:49:15.942Z,7.40
2023-01-19T08:51:45.825Z,7.40
2023-01-19T08:54:13.172Z,7.40
2023-01-19T08:56:39.907Z,7.40
2023-01-19T08:59:10.341Z,7.50
2023-01-19T09:01:38.141Z,7.50
2023-01-19T09:04:05.418Z,7.50
2023-01-19T09:06:32.862Z,7.50
2023-01-19T09:09:00.170Z,7.60
2023-01-19T09:11:27.554Z,7.60
2023-01-19T09:13:54.406Z,7.60
2023-01-19T09:16:21.579Z,7.70
2023-01-19T09:18:48.366Z,7.70
2023-01-19T09:21:16.149Z,7.80
2023-01-19T09:23:42.965Z,7.80
2023-01-19T09:26:10.306Z,7.90
2023-01-19T09:28:38.149Z,8.00
2023-01-19T09:31:07.266Z,8.10
2023-01-19T09:33:34.764Z,8.20
2023-01-19T09:36:02.251Z,8.30
2023-01-19T09:38:32.604Z,8.40
2023-01-19T09:41:00.819Z,8.60
2023-01-19T09:43:41.365Z,8.90
2023-01-19T09:46:27.636Z,9.10
2023-01-19T09:48:58.168Z,9.40
2023-01-19T09:51:28.438Z,9.70
2023-01-19T09:54:16.223Z,9.90
2023-01-19T09:56:44.380Z,10.10
2023-01-19T09:59:31.124Z,10.40
2023-01-19T10:02:35.478Z,10.60
2023-01-19T10:05:24.565Z,10.80
2023-01-19T10:07:54.523Z,11.00
2023-01-19T10:10:24.801Z,11.20
2023-01-19T10:13:16.988Z,11.40
2023-01-19T10:16:19.063Z,11.50
2023-01-19T10:18:51.900Z,11.70
2023-01-19T10:21:28.291Z,11.80
2023-01-19T10:24:21.026Z,11.90
2023-01-19T10:26:52.457Z,12.00
2023-01-19T10:29:29.658Z,11.90
2023-01-19T10:32:18.062Z,11.80
2023-01-19T10:34:44.878Z,11.70
2023-01-19T10:37:17.806Z,11.70
2023-01-19T10:39:46.180Z,11.60
2023-01-19T10:42:16.114Z,11.40
2023-01-19T10:44:45.229Z,11.30
2023-01-19T10:47:20.739Z,11.20
2023-01-19T10:49:48.595Z,11.10
2023-01-19T10:52:35.703Z,10.90
2023-01-19T10:55:04.445Z,10.90
2023-01-19T10:57:38.408Z,10.80
2023-01-19T11:00:14.032Z,10.70
2023-01-19T11:02:50.308Z,10.70
2023-01-19T11:05:35.615Z,10.60
2023-01-19T11:08:33.573Z,10.60
2023-01-19T11:11:04.463Z,10.50
2023-01-19T11:13:32.347Z,10.40
2023-01-19T11:16:25.221Z,10.40
2023-01-19T11:18:53.359Z,10.40
2023-01-19T11:21:25.959Z,10.40
2023-01-19T11:23:56.474Z,10.30
2023-01-19T11:26:32.609Z,10.30
2023-01-19T11:29:02.336Z,10.30
2023-01-19T11:31:29.134Z,10.30
2023-01-19T11:33:59.695Z,10.30
2023-01-19T11:36:36.911Z,10.30
2023-01-19T11:39:21.353Z,10.30
2023-01-19T11:41:51.830Z,10.30
2023-01-19T11:44:32.599Z,10.30
2023-01-19T11:47:28.225Z,10.40
2023-01-19T11:50:33.240Z,10.40
2023-01-19T11:53:25.507Z,10.30
2023-01-19T11:56:06.140Z,10.30
2023-01-19T11:58:39.080Z,10.30
2023-01-19T12:01:21.232Z,10.30
2023-01-19T12:04:04.461Z,10.30
2023-01-19T12:06:35.342Z,10.30
2023-01-19T12:09:12.754Z,10.20
2023-01-19T12:11:48.846Z,10.20
2023-01-19T12:14:54.700Z,10.10
2023-01-19T12:17:28.161Z,10.10
2023-01-19T12:20:03.790Z,10.10
2023-01-19T12:22:41.005Z,10.00
2023-01-19T12:25:18.257Z,10.00
2023-01-19T12:27:46.696Z,10.00
2023-01-19T12:30:21.096Z,9.90
2023-01-19T12:32:48.621Z,9.80
2023-01-19T12:35:52.924Z,9.80
2023-01-19T12:38:40.853Z,9.80
2023-01-19T12:41:28.623Z,9.80
2023-01-19T12:44:19.507Z,9.80
2023-01-19T12:47:03.291Z,9.80
2023-01-19T12:49:37.777Z,9.80
2023-01-19T12:52:34.072Z,9.80
2023-01-19T12:55:14.726Z,9.80
2023-01-19T12:57:50.594Z,9.90
2023-01-19T13:00:21.014Z,9.90
2023-01-19T13:02:59.205Z,9.90
2023-01-19T13:05:33.241Z,9.90
2023-01-19T13:08:04.810Z,9.80
2023-01-19T13:11:00.374Z,9.80
2023-01-19T13:13:32.437Z,9.80
2023-01-19T13:16:18.122Z,9.80
2023-01-19T13:19:06.796Z,9.80
2023-01-19T13:21:33.522Z,9.90
2023-01-19T13:24:02.830Z,9.90
2023-01-19T13:26:39.834Z,10.00
2023-01-19T13:29:40.491Z,10.00
2023-01-19T13:32:15.985Z,10.00
2023-01-19T13:34:51.629Z,10.00
2023-01-19T13:37:21.688Z,10.00
2023-01-19T13:39:51.910Z,10.00
2023-01-19T13:42:35.521Z,10.00
2023-01-19T13:45:37.036Z,10.00
2023-01-19T13:48:07.781Z,10.00
2023-01-19T13:50:39.267Z,9.90
2023-01-19T13:53:20.735Z,9.90
2023-01-19T13:56:08.811Z,9.90
2023-01-19T13:58:35.729Z,10.00
2023-01-19T14:01:02.483Z,10.00
2023-01-19T14:03:29.316Z,10.00
2023-01-19T14:05:56.218Z,9.90
2023-01-19T14:08:25.386Z,9.80
2023-01-19T14:10:52.175Z,9.80
2023-01-19T14:13:29.738Z,9.70
2023-01-19T14:15:59.733Z,9.60
2023-01-19T14:18:31.535Z,9.50
2023-01-19T14:21:07.496Z,9.50
2023-01-19T14:23:48.262Z,9.40
2023-01-19T14:26:42.930Z,9.40
2023-01-19T14:29:32.784Z,9.40
2023-01-19T14:32:19.382Z,9.50
2023-01-19T14:34:50.183Z,9.50
2023-01-19T14:37:21.276Z,9.50
2023-01-19T14:40:19.476Z,9.50
2023-01-19T14:43:07.835Z,9.50
2023-01-19T14:45:35.804Z,9.50
2023-01-19T14:48:06.141Z,9.50
2023-01-19T14:50:36.289Z,9.50
2023-01-19T14:53:14.600Z,9.40
2023-01-19T14:55:47.251Z,9.40
2023-01-19T14:58:16.601Z,9.30
2023-01-19T15:00:44.967Z,9.30
2023-01-19T15:03:12.124Z,9.30
2023-01-19T15:05:42.138Z,9.30
2023-01-19T15:08:14.968Z,9.20
2023-01-19T15:10:42.438Z,9.20
2023-01-19T15:13:19.098Z,9.10
2023-01-19T15:15:46.116Z,9.10
2023-01-19T15:18:20.875Z,9.10
2023-01-19T15:20:47.630Z,9.10
2023-01-19T15:23:14.386Z,9.00
2023-01-19T15:25:41.215Z,9.00
2023-01-19T15:28:13.227Z,8.90
2023-01-19T15:30:40.391Z,8.90
2023-01-19T15:33:09.401Z,8.90
2023-01-19T15:35:36.235Z,8.80
2023-01-19T15:38:02.993Z,8.80
2023-01-19T15:40:29.878Z,8.70
2023-01-19T15:42:56.658Z,8.70
2023-01-19T15:45:35.620Z,8.80
2023-01-19T15:48:05.764Z,8.70
2023-01-19T15:50:33.456Z,8.70
2023-01-19T15:53:00.212Z,8.70
2023-01-19T15:55:27.238Z,8.70
2023-01-19T15:57:55.069Z,8.70
2023-01-19T16:00:21.897Z,8.70
2023-01-19T16:02:50.257Z,8.70
2023-01-19T16:05:17.071Z,8.70
2023-01-19T16:07:43.945Z,8.70
2023-01-19T16:10:12.722Z,8.70
2023-01-19T16:12:39.664Z,8.60
2023-01-19T16:15:07.207Z,8.60
2023-01-19T16:17:34.183Z,8.50
2023-01-19T16:20:00.967Z,8.50
2023-01-19T16:22:27.686Z,8.50
2023-01-19T16:24:56.372Z,8.40
2023-01-19T16:27:24.323Z,8.40
2023-01-19T16:29:51.214Z,8.30
2023-01-19T16:32:18.844Z,8.30
2023-01-19T16:34:45.693Z,8.20
2023-01-19T16:37:12.777Z,8.20
2023-01-19T16:39:39.576Z,8.10
2023-01-19T16:42:06.380Z,8.10
2023-01-19T16:44:33.148Z,8.10
2023-01-19T16:46:59.884Z,8.10
2023-01-19T16:49:28.505Z,8.10
2023-01-19T16:51:55.988Z,8.10
2023-01-19T16:54:25.912Z,8.10
2023-01-19T16:56:53.871Z,8.10
2023-01-19T16:59:22.321Z,8.00
2023-01-19T17:01:53.118Z,8.00
2023-01-19T17:04:21.637Z,8.00
2023-01-19T17:06:48.492Z,7.90
2023-01-19T17:09:15.328Z,7.90
2023-01-19T17:11:42.713Z,7.70
2023-01-19T17:14:15.385Z,7.60
2023-01-19T17:16:59.703Z,7.60
2023-01-19T17:19:29.072Z,7.60
2023-01-19T17:21:55.849Z,7.60
2023-01-19T17:24:22.648Z,7.60
2023-01-19T17:26:49.456Z,7.60
2023-01-19T17:29:17.161Z,7.50
2023-01-19T17:31:44.600Z,7.50
2023-01-19T17:34:11.573Z,7.50
2023-01-19T17:36:38.460Z,7.50
2023-01-19T17:39:07.880Z,7.40
2023-01-19T17:41:35.803Z,7.40
2023-01-19T17:44:04.357Z,7.30
2023-01-19T17:46:32.030Z,7.30
2023-01-19T17:49:04.107Z,7.30
2023-01-19T17:51:31.751Z,7.20
2023-01-19T17:53:59.102Z,7.10
2023-01-19T17:56:30.164Z,7.00
2023-01-19T17:58:57.806Z,6.90
2023-01-19T18:01:28.870Z,6.90
2023-01-19T18:03:56.333Z,6.90
2023-01-19T18:06:23.555Z,6.90
2023-01-19T18:08:50.543Z,6.80
2023-01-19T18:11:19.379Z,6.70
2023-01-19T18:13:48.286Z,6.60
2023-01-19T18:16:35.023Z,6.50
2023-01-19T18:19:01.867Z,6.50
2023-01-19T18:21:30.239Z,6.50
2023-01-19T18:24:02.339Z,6.50
2023-01-19T18:26:29.731Z,6.50
2023-01-19T18:28:57.464Z,6.40
2023-01-19T18:31:25.282Z,6.40
2023-01-19T18:33:52.673Z,6.40
2023-01-19T18:36:20.218Z,6.40
2023-01-19T18:38:47.661Z,6.40
2023-01-19T18:41:17.098Z,6.50
2023-01-19T18:43:44.153Z,6.50
2023-01-19T18:46:11.325Z,6.50
2023-01-19T18:48:39.394Z,6.50
2023-01-19T18:51:12.002Z,6.50
2023-01-19T18:53:39.245Z,6.40
2023-01-19T18:56:08.915Z,6.40
2023-01-19T18:58:38.213Z,6.40
2023-01-19T19:01:16.262Z,6.30
2023-01-19T19:03:43.213Z,6.30
2023-01-19T19:06:09.992Z,6.30
2023-01-19T19:08:36.779Z,6.30
2023-01-19T19:11:07.964Z,6.30
2023-01-19T19:13:34.903Z,6.30
2023-01-19T19:16:12.039Z,6.30
2023-01-19T19:18:39.391Z,6.30
2023-01-19T19:21:08.890Z,6.20
2023-01-19T19:23:38.692Z,6.10
2023-01-19T19:26:10.709Z,6.10
2023-01-19T19:28:39.527Z,6.10
2023-01-19T19:31:14.930Z,6.10
2023-01-19T19:33:41.923Z,6.20
2023-01-19T19:36:10.092Z,6.20
2023-01-19T19:38:36.976Z,6.30
2023-01-19T19:41:08.125Z,6.30
2023-01-19T19:43:35.336Z,6.40
2023-01-19T19:46:05.791Z,6.50
2023-01-19T19:48:33.779Z,6.50
2023-01-19T19:51:18.852Z,6.60
2023-01-19T19:53:51.545Z,6.60
2023-01-19T19:56:21.221Z,6.70
2023-01-19T19:58:48.980Z,6.70
2023-01-19T20:01:21.385Z,6.70
2023-01-19T20:03:49.881Z,6.90
2023-01-19T20:06:23.715Z,6.90
2023-01-19T20:08:52.944Z,6.90
2023-01-19T20:11:28.294Z,6.90
2023-01-19T20:13:55.558Z,6.90
2023-01-19T20:16:23.731Z,6.90
2023-01-19T20:18:53.900Z,6.90
2023-01-19T20:21:24.098Z,6.90
2023-01-19T20:23:51.163Z,6.80
2023-01-19T20:26:20.687Z,6.80
2023-01-19T20:28:47.869Z,6.80
2023-01-19T20:31:19.330Z,6.80
2023-01-19T20:33:51.583Z,6.80
2023-01-19T20:36:19.390Z,6.80
2023-01-19T20:38:46.166Z,6.80
2023-01-19T20:41:13.515Z,6.80
2023-01-19T20:43:40.556Z,6.70
2023-01-19T20:46:07.646Z,6.70
2023-01-19T20:48:34.638Z,6.60
2023-01-19T20:51:04.044Z,6.60
2023-01-19T20:53:31.415Z,6.60
2023-01-19T20:55:58.347Z,6.60
2023-01-19T20:58:25.051Z,6.50
2023-01-19T21:00:52.458Z,6.50
2023-01-19T21:03:19.246Z,6.60
2023-01-19T21:05:48.292Z,6.60
2023-01-19T21:08:16.470Z,6.60
2023-01-19T21:10:45.414Z,6.60
2023-01-19T21:13:12.175Z,6.60
2023-01-19T21:15:38.946Z,6.60
2023-01-19T21:18:05.832Z,6.60
2023-01-19T21:20:33.096Z,6.60
2023-01-19T21:22:59.971Z,6.60
2023-01-19T21:25:26.743Z,6.70
2023-01-19T21:27:53.509Z,6.70
2023-01-19T21:30:20.377Z,6.60
2023-01-19T21:32:47.202Z,6.60
2023-01-19T21:35:14.429Z,6.50
2023-01-19T21:37:41.497Z,6.50
2023-01-19T21:40:09.058Z,6.50
2023-01-19T21:42:35.817Z,6.50
2023-01-19T21:45:02.588Z,6.50
2023-01-19T21:47:29.310Z,6.50
2023-01-19T21:49:56.082Z,6.50
2023-01-19T21:52:23.120Z,6.50
2023-01-19T21:54:49.869Z,6.40
2023-01-19T21:57:19.585Z,6.50
2023-01-19T21:59:46.459Z,6.40
2023-01-19T22:02:13.635Z,6.40
2023-01-19T22:04:40.771Z,6.30
2023-01-19T22:07:07.615Z,6.30
2023-01-19T22:09:35.415Z,6.30
2023-01-19T22:12:02.684Z,6.20
2023-01-19T22:14:29.632Z,6.20
2023-01-19T22:16:56.866Z,6.20
2023-01-19T22:19:23.724Z,6.20
2023-01-19T22:21:50.470Z,6.20
2023-01-19T22:24:17.361Z,6.30
2023-01-19T22:26:44.149Z,6.20
2023-01-19T22:29:11.887Z,6.20
2023-01-19T22:31:39.448Z,6.20
2023-01-19T22:34:10.159Z,6.20
2023-01-19T22:36:37.989Z,6.30
2023-01-19T22:39:08.096Z,6.30
2023-01-19T22:41:37.789Z,6.30
2023-01-19T22:44:07.316Z,6.30
2023-01-19T22:46:36.334Z,6.20
2023-01-19T22:49:04.130Z,6.20
2023-01-19T22:51:32.337Z,6.10
2023-01-19T22:53:59.638Z,6.10
2023-01-19T22:56:28.402Z,5.90
2023-01-19T22:58:55.639Z,5.80
2023-01-19T23:01:34.147Z,5.80
2023-01-19T23:04:02.292Z,5.80
2023-01-19T23:06:31.369Z,5.80
2023-01-19T23:09:00.844Z,5.70
2023-01-19T23:11:37.809Z,5.70
2023-01-19T23:14:07.237Z,5.70
2023-01-19T23:16:34.815Z,5.70
2023-01-19T23:19:01.886Z,5.70
2023-01-19T23:21:30.247Z,5.80
2023-01-19T23:23:59.021Z,5.80
2023-01-19T23:26:26.760Z,5.80
2023-01-19T23:28:56.268Z,5.80
2023-01-19T23:31:31.560Z,5.90
2023-01-19T23:34:01.669Z,6.00
2023-01-19T23:36:31.317Z,6.00
2023-01-19T23:39:00.614Z,6.00
2023-01-19T23:41:29.496Z,6.00
2023-01-19T23:43:56.396Z,5.90
2023-01-19T23:46:23.435Z,5.90
2023-01-19T23:48:50.390Z,5.90
2023-01-19T23:51:23.451Z,5.80
2023-01-19T23:53:51.035Z,5.70
2023-01-19T23:56:29.257Z,5.70
2023-01-19T23:59:07.891Z,5.70
